Philadelphia International Airport (PHL/KPHL)




Flight Aircraft Arriving
CPX438 B738
KRFD - Chicago/Rockford International Airport
United StatesIllinois Rockford, Illinois
CPX442 B738
KCVG - Cincinnati/Northern Kentucky International Airport
United StatesKentucky Covington, Kentucky
Flight Aircraft Departing
CPX437 B738
KCVG - Cincinnati/Northern Kentucky International Airport
United StatesKentucky Covington, Kentucky
CPX439 B738
KRFD - Chicago/Rockford International Airport
United StatesIllinois Rockford, Illinois
Airport Information
Location: Philadelphia, US
Coordinates: 39.8721 / -75.2407
Elevation:
Time Offset:
Local Time:
UTC Time:
Jet A Price: $0.9/lbs

Current Weather
METAR: KPHL 050454Z 20006KT 10SM BKN060 09/06 A3005 RMK AO2 SLP177 T00890061 401390089
TAF: KPHL 050246Z 0503/0606 23006KT P6SM BKN040

Recent Arrivals
Date Flight Type Depart
09/25/2019 CPX439 B738 Chicago/Rockford International Airport (KRFD)
09/23/2019 CPX437 B738 Cincinnati/Northern Kentucky International Airport (KCVG)
09/19/2019 CPX439 B738 Chicago/Rockford International Airport (KRFD)
Recent Departures
Date Flight Type Arrive
10/10/2019 CPX438 B738 Chicago/Rockford International Airport (KRFD)
09/26/2019 CPX438 B738 Chicago/Rockford International Airport (KRFD)
09/23/2019 CPX442 B738 Cincinnati/Northern Kentucky International Airport (KCVG)